createdAt,value
2024-03-12T00:01:45.103Z,78.39
2024-03-12T00:04:12.780Z,78.33
2024-03-12T00:06:43.726Z,78.88
2024-03-12T00:09:11.315Z,79.05
2024-03-12T00:11:38.814Z,79.32
2024-03-12T00:14:06.286Z,79.67
2024-03-12T00:16:35.487Z,80.07
2024-03-12T00:19:04.220Z,80.57
2024-03-12T00:21:31.944Z,80.66
2024-03-12T00:24:00.419Z,81.06
2024-03-12T00:26:29.734Z,81.16
2024-03-12T00:28:57.061Z,81.39
2024-03-12T00:31:25.982Z,81.44
2024-03-12T00:33:53.619Z,81.66
2024-03-12T00:36:20.948Z,81.62
2024-03-12T00:38:48.354Z,81.45
2024-03-12T00:41:15.789Z,81.91
2024-03-12T00:43:43.933Z,82.15
2024-03-12T00:46:12.210Z,82.36
2024-03-12T00:48:39.557Z,83.03
2024-03-12T00:51:06.963Z,83.32
2024-03-12T00:53:34.298Z,83.58
2024-03-12T00:56:02.833Z,83.71
2024-03-12T00:58:30.303Z,84.24
2024-03-12T01:00:59.344Z,84.57
2024-03-12T01:03:27.689Z,85.06
2024-03-12T01:05:55.373Z,84.78
2024-03-12T01:08:23.283Z,85.00
2024-03-12T01:10:50.596Z,84.51
2024-03-12T01:13:18.018Z,84.79
2024-03-12T01:15:47.164Z,84.40
2024-03-12T01:18:14.597Z,84.02
2024-03-12T01:20:41.865Z,84.18
2024-03-12T01:23:10.161Z,83.88
2024-03-12T01:25:38.527Z,83.71
2024-03-12T01:28:08.310Z,83.44
2024-03-12T01:30:38.136Z,83.36
2024-03-12T01:33:07.671Z,83.39
2024-03-12T01:35:40.824Z,83.22
2024-03-12T01:38:11.904Z,83.35
2024-03-12T01:40:40.704Z,83.13
2024-03-12T01:43:08.961Z,83.60
2024-03-12T01:45:37.962Z,83.14
2024-03-12T01:48:09.535Z,83.10
2024-03-12T01:50:41.129Z,82.85
2024-03-12T01:53:09.920Z,82.75
2024-03-12T01:55:45.945Z,82.53
2024-03-12T01:58:19.864Z,82.71
2024-03-12T02:00:48.293Z,82.57
2024-03-12T02:03:20.348Z,82.66
2024-03-12T02:05:49.550Z,82.29
2024-03-12T02:08:18.184Z,82.20
2024-03-12T02:10:47.399Z,82.02
2024-03-12T02:13:14.988Z,82.16
2024-03-12T02:15:43.272Z,82.24
2024-03-12T02:18:10.999Z,82.06
2024-03-12T02:20:39.676Z,82.16
2024-03-12T02:23:07.324Z,82.32
2024-03-12T02:25:34.665Z,82.17
2024-03-12T02:28:04.418Z,82.32
2024-03-12T02:30:32.391Z,81.96
2024-03-12T02:32:59.806Z,81.82
2024-03-12T02:35:28.534Z,81.80
2024-03-12T02:37:56.465Z,81.64
2024-03-12T02:40:25.445Z,81.96
2024-03-12T02:42:53.035Z,81.47
2024-03-12T02:45:22.505Z,81.24
2024-03-12T02:47:50.101Z,81.48
2024-03-12T02:50:17.852Z,81.35
2024-03-12T02:52:47.035Z,81.06
2024-03-12T02:55:15.013Z,80.79
2024-03-12T02:57:42.968Z,80.77
2024-03-12T03:00:14.711Z,80.49
2024-03-12T03:02:45.976Z,80.26
2024-03-12T03:05:14.720Z,80.03
2024-03-12T03:07:42.654Z,79.97
2024-03-12T03:10:12.345Z,80.30
2024-03-12T03:12:41.142Z,80.64
2024-03-12T03:15:13.692Z,80.27
2024-03-12T03:17:45.129Z,80.28
2024-03-12T03:20:13.896Z,80.46
2024-03-12T03:22:41.361Z,80.94
2024-03-12T03:25:10.578Z,81.46
2024-03-12T03:27:37.898Z,81.60
2024-03-12T03:30:08.406Z,81.61
2024-03-12T03:32:36.867Z,81.91
2024-03-12T03:35:08.306Z,81.99
2024-03-12T03:37:41.927Z,82.33
2024-03-12T03:40:12.707Z,82.49
2024-03-12T03:42:40.787Z,82.71
2024-03-12T03:45:08.389Z,82.84
2024-03-12T03:47:36.274Z,83.19
2024-03-12T03:50:08.766Z,83.20
2024-03-12T03:52:36.528Z,82.74
2024-03-12T03:55:05.320Z,83.04
2024-03-12T03:57:33.152Z,83.07
2024-03-12T04:00:00.873Z,82.85
2024-03-12T04:02:28.518Z,83.16
2024-03-12T04:04:56.050Z,83.15
2024-03-12T04:07:26.670Z,83.05
2024-03-12T04:09:56.112Z,83.13
2024-03-12T04:12:24.065Z,83.08
2024-03-12T04:14:51.780Z,83.01
2024-03-12T04:17:21.010Z,83.17
2024-03-12T04:19:49.872Z,82.86
2024-03-12T04:22:20.689Z,83.00
2024-03-12T04:24:48.257Z,82.65
2024-03-12T04:27:16.436Z,82.50
2024-03-12T04:29:44.086Z,82.61
2024-03-12T04:32:11.595Z,82.58
2024-03-12T04:34:39.073Z,82.59
2024-03-12T04:37:06.613Z,82.43
2024-03-12T04:39:34.173Z,82.02
2024-03-12T04:42:10.412Z,81.57
2024-03-12T04:44:37.845Z,81.33
2024-03-12T04:47:05.466Z,80.61
2024-03-12T04:49:32.871Z,80.57
2024-03-12T04:52:00.425Z,80.15
2024-03-12T04:54:28.497Z,79.53
2024-03-12T04:56:58.314Z,79.21
2024-03-12T04:59:25.671Z,78.39
2024-03-12T05:01:53.875Z,78.14
2024-03-12T05:04:26.317Z,77.93
2024-03-12T05:06:53.758Z,77.68
2024-03-12T05:09:21.179Z,76.91
2024-03-12T05:11:49.439Z,76.19
2024-03-12T05:14:18.264Z,75.79
2024-03-12T05:16:45.921Z,74.85
2024-03-12T05:19:13.562Z,74.38
2024-03-12T05:21:41.132Z,73.96
2024-03-12T05:24:08.717Z,73.34
2024-03-12T05:26:45.279Z,72.50
2024-03-12T05:29:13.518Z,71.86
2024-03-12T05:31:40.924Z,71.93
2024-03-12T05:34:19.269Z,71.82
2024-03-12T05:36:50.082Z,71.12
2024-03-12T05:39:22.301Z,69.36
2024-03-12T05:42:12.826Z,68.34
2024-03-12T05:44:58.790Z,69.20
2024-03-12T05:47:45.755Z,70.58
2024-03-12T05:50:18.386Z,71.95
2024-03-12T05:52:49.748Z,73.17
2024-03-12T05:55:17.362Z,74.23
2024-03-12T05:57:48.339Z,75.05
2024-03-12T06:00:16.900Z,75.72
2024-03-12T06:02:44.873Z,76.28
2024-03-12T06:05:15.028Z,76.80
2024-03-12T06:07:43.489Z,77.44
2024-03-12T06:10:11.213Z,78.19
2024-03-12T06:12:39.711Z,78.21
2024-03-12T06:15:07.882Z,78.77
2024-03-12T06:17:36.141Z,78.55
2024-03-12T06:20:09.281Z,79.75
2024-03-12T06:22:38.499Z,77.47
2024-03-12T06:25:07.126Z,73.86
2024-03-12T06:27:35.168Z,70.89
2024-03-12T06:30:02.483Z,70.56
2024-03-12T06:32:33.062Z,70.76
2024-03-12T06:35:00.581Z,69.98
2024-03-12T06:37:31.123Z,66.09
2024-03-12T06:40:00.265Z,62.13
2024-03-12T06:42:31.217Z,60.12
2024-03-12T06:45:01.991Z,56.69
2024-03-12T06:47:30.423Z,55.69
2024-03-12T06:50:00.217Z,54.44
2024-03-12T06:52:28.203Z,53.60
2024-03-12T06:54:55.730Z,54.04
2024-03-12T06:57:23.965Z,53.06
2024-03-12T06:59:51.628Z,51.92
2024-03-12T07:02:19.408Z,51.19
2024-03-12T07:04:50.170Z,50.68
2024-03-12T07:07:21.337Z,50.92
2024-03-12T07:09:49.780Z,50.78
2024-03-12T07:12:17.946Z,51.11
2024-03-12T07:14:47.216Z,50.87
2024-03-12T07:17:15.870Z,51.47
2024-03-12T07:19:44.432Z,51.60
2024-03-12T07:22:12.703Z,51.99
2024-03-12T07:24:43.063Z,51.61
2024-03-12T07:27:11.850Z,51.02
2024-03-12T07:29:39.164Z,51.90
2024-03-12T07:32:09.402Z,51.04
2024-03-12T07:34:38.475Z,51.70
2024-03-12T07:37:06.480Z,51.13
2024-03-12T07:39:36.060Z,50.80
2024-03-12T07:42:09.821Z,50.88
2024-03-12T07:44:38.305Z,51.89
2024-03-12T07:47:05.975Z,52.11
2024-03-12T07:49:38.373Z,51.96
2024-03-12T07:52:10.793Z,51.56
2024-03-12T07:54:42.157Z,51.62
2024-03-12T07:57:10.102Z,51.90
2024-03-12T07:59:37.948Z,51.44
2024-03-12T08:02:13.063Z,52.87
2024-03-12T08:04:46.059Z,52.47
2024-03-12T08:07:14.909Z,52.56
2024-03-12T08:09:45.788Z,53.78
2024-03-12T08:12:17.628Z,53.93
2024-03-12T08:14:46.072Z,54.85
2024-03-12T08:17:13.961Z,55.36
2024-03-12T08:19:44.775Z,55.98
2024-03-12T08:22:12.517Z,56.25
2024-03-12T08:24:40.636Z,55.98
2024-03-12T08:27:08.472Z,56.08
2024-03-12T08:29:35.966Z,55.75
2024-03-12T08:32:05.148Z,55.35
2024-03-12T08:34:32.524Z,55.51
2024-03-12T08:37:00.183Z,54.33
2024-03-12T08:39:29.829Z,54.80
2024-03-12T08:41:57.518Z,54.96
2024-03-12T08:44:25.262Z,55.00
2024-03-12T08:46:52.990Z,55.17
2024-03-12T08:49:20.380Z,54.42
2024-03-12T08:51:47.888Z,54.07
2024-03-12T08:54:15.614Z,54.71
2024-03-12T08:56:44.526Z,54.55
2024-03-12T09:02:05.928Z,52.82
2024-03-12T09:04:33.916Z,52.34
2024-03-12T09:07:02.008Z,52.07
2024-03-12T09:09:29.423Z,52.31
2024-03-12T09:11:58.323Z,50.84
2024-03-12T09:14:28.278Z,50.28
2024-03-12T09:16:55.644Z,49.85
2024-03-12T09:19:23.535Z,49.41
2024-03-12T09:21:50.832Z,48.90
2024-03-12T09:24:20.421Z,49.46
2024-03-12T09:26:47.782Z,48.75
2024-03-12T09:29:14.992Z,48.31
2024-03-12T09:31:43.657Z,47.53
2024-03-12T09:34:12.083Z,47.69
2024-03-12T09:36:39.994Z,47.31
2024-03-12T09:39:12.545Z,46.95
2024-03-12T09:41:53.707Z,46.39
2024-03-12T09:44:23.081Z,47.68
2024-03-12T09:46:50.680Z,47.70
2024-03-12T09:49:20.678Z,48.31
2024-03-12T09:51:48.280Z,47.40
2024-03-12T09:54:15.734Z,47.92
2024-03-12T09:56:44.465Z,46.72
2024-03-12T09:59:11.977Z,47.37
2024-03-12T10:01:42.028Z,49.92
2024-03-12T10:04:13.475Z,52.00
2024-03-12T10:06:41.210Z,52.19
2024-03-12T10:09:18.525Z,51.80
2024-03-12T10:11:48.757Z,52.73
2024-03-12T10:14:19.054Z,53.01
2024-03-12T10:16:46.722Z,52.36
2024-03-12T10:19:19.931Z,52.99
2024-03-12T10:21:47.524Z,53.47
2024-03-12T10:24:23.056Z,52.71
2024-03-12T10:26:51.154Z,51.33
2024-03-12T10:29:22.420Z,50.19
2024-03-12T10:31:49.796Z,50.31
2024-03-12T10:34:22.007Z,50.47
2024-03-12T10:36:51.674Z,50.16
2024-03-12T10:39:27.456Z,50.22
2024-03-12T10:42:00.938Z,50.75
2024-03-12T10:44:30.302Z,49.95
2024-03-12T10:47:02.316Z,48.08
2024-03-12T10:49:30.767Z,46.34
2024-03-12T10:51:59.337Z,45.65
2024-03-12T10:54:32.108Z,44.09
2024-03-12T10:57:04.667Z,43.68
2024-03-12T10:59:34.403Z,42.49
2024-03-12T11:02:05.174Z,42.39
2024-03-12T11:04:36.734Z,42.31
2024-03-12T11:07:05.340Z,41.45
2024-03-12T11:09:34.889Z,42.95
2024-03-12T11:12:05.410Z,43.23
2024-03-12T11:14:33.000Z,42.87
2024-03-12T11:17:01.814Z,44.38
2024-03-12T11:19:30.959Z,44.85
2024-03-12T11:22:11.436Z,48.41
2024-03-12T11:24:46.516Z,53.73
2024-03-12T11:27:26.785Z,63.84
2024-03-12T11:30:07.251Z,72.04
2024-03-12T11:32:35.443Z,79.12
2024-03-12T11:35:18.265Z,84.97
2024-03-12T11:37:49.123Z,92.61
2024-03-12T11:40:33.749Z,97.92
2024-03-12T11:43:01.521Z,100.00
2024-03-12T11:45:43.940Z,100.00
2024-03-12T11:48:12.350Z,100.00
2024-03-12T11:50:41.429Z,100.00
2024-03-12T11:53:16.054Z,100.00
2024-03-12T11:56:17.261Z,100.00
2024-03-12T11:58:49.918Z,100.00
2024-03-12T12:01:20.632Z,100.00
2024-03-12T12:03:51.848Z,100.00
2024-03-12T12:06:20.948Z,100.00
2024-03-12T12:08:57.282Z,97.97
2024-03-12T12:11:30.040Z,96.16
2024-03-12T12:14:01.302Z,94.23
2024-03-12T12:16:30.406Z,92.46
2024-03-12T12:19:09.445Z,91.83
2024-03-12T12:21:37.949Z,90.50
2024-03-12T12:24:08.145Z,89.60
2024-03-12T12:26:37.768Z,87.13
2024-03-12T12:29:09.052Z,84.54
2024-03-12T12:31:38.031Z,85.50
2024-03-12T12:34:07.953Z,86.14
2024-03-12T12:36:41.814Z,83.29
2024-03-12T12:39:12.181Z,84.02
2024-03-12T12:41:45.577Z,80.00
2024-03-12T12:44:18.652Z,79.53
2024-03-12T12:46:49.670Z,79.11
2024-03-12T12:49:18.800Z,79.15
2024-03-12T12:51:47.852Z,79.12
2024-03-12T12:54:20.289Z,79.81
2024-03-12T12:56:48.276Z,77.94
2024-03-12T12:59:18.317Z,76.72
2024-03-12T13:01:49.815Z,75.72
2024-03-12T13:04:29.792Z,74.23
2024-03-12T13:07:02.695Z,73.88
2024-03-12T13:09:33.868Z,73.18
2024-03-12T13:12:05.349Z,72.52
2024-03-12T13:14:35.230Z,69.56
2024-03-12T13:17:05.752Z,70.67
2024-03-12T13:19:34.453Z,69.24
2024-03-12T13:22:10.569Z,68.22
2024-03-12T13:24:45.826Z,66.42
2024-03-12T13:27:16.874Z,67.37
2024-03-12T13:29:47.494Z,66.07
2024-03-12T13:32:16.184Z,67.43
2024-03-12T13:34:44.448Z,65.97
2024-03-12T13:37:14.060Z,63.82
2024-03-12T13:39:43.035Z,63.67
2024-03-12T13:42:11.971Z,61.83
2024-03-12T13:44:40.728Z,60.69
2024-03-12T13:47:09.702Z,60.71
2024-03-12T13:49:38.491Z,61.13
2024-03-12T13:52:06.376Z,60.42
2024-03-12T13:54:34.268Z,60.46
2024-03-12T13:57:01.954Z,59.94
2024-03-12T13:59:29.350Z,60.16
2024-03-12T14:01:58.095Z,59.75
2024-03-12T14:04:28.512Z,59.98
2024-03-12T14:06:57.415Z,60.33
2024-03-12T14:09:26.520Z,60.04
2024-03-12T14:11:54.008Z,60.37
2024-03-12T14:14:23.089Z,59.22
2024-03-12T14:16:53.047Z,59.89
2024-03-12T14:19:20.439Z,62.36
2024-03-12T14:21:48.204Z,62.78
2024-03-12T14:24:16.819Z,63.27
2024-03-12T14:26:44.660Z,63.48
2024-03-12T14:29:12.418Z,63.20
2024-03-12T14:31:42.989Z,62.79
2024-03-12T14:34:11.245Z,63.93
2024-03-12T14:36:39.197Z,63.83
2024-03-12T14:39:09.230Z,62.88
2024-03-12T14:41:37.438Z,62.21
2024-03-12T14:44:09.445Z,61.86
2024-03-12T14:46:42.418Z,62.34
2024-03-12T14:49:10.005Z,61.91
2024-03-12T14:51:37.353Z,62.77
2024-03-12T14:54:06.215Z,62.85
2024-03-12T14:56:34.990Z,62.98
2024-03-12T14:59:05.102Z,63.24
2024-03-12T15:01:32.966Z,63.38
2024-03-12T15:04:01.604Z,62.48
2024-03-12T15:06:28.920Z,63.01
2024-03-12T15:08:57.185Z,62.72
2024-03-12T15:11:24.714Z,62.96
2024-03-12T15:13:56.064Z,62.85
2024-03-12T15:16:23.510Z,62.96
2024-03-12T15:18:51.258Z,62.31
2024-03-12T15:21:19.281Z,61.44
2024-03-12T15:23:49.041Z,61.30
2024-03-12T15:26:16.354Z,59.61
2024-03-12T15:28:44.909Z,58.34
2024-03-12T15:31:13.427Z,58.84
2024-03-12T15:33:41.252Z,58.33
2024-03-12T15:36:09.346Z,58.64
2024-03-12T15:38:38.048Z,58.36
2024-03-12T15:41:09.368Z,58.25
2024-03-12T15:43:39.255Z,58.76
2024-03-12T15:46:14.423Z,59.31
2024-03-12T15:48:48.580Z,59.96
2024-03-12T15:51:21.446Z,60.21
2024-03-12T15:53:49.744Z,59.96
2024-03-12T15:56:17.569Z,59.79
2024-03-12T15:58:45.679Z,60.13
2024-03-12T16:01:14.722Z,59.99
2024-03-12T16:03:43.183Z,60.01
2024-03-12T16:06:10.687Z,59.46
2024-03-12T16:08:38.466Z,59.39
2024-03-12T16:11:05.831Z,59.09
2024-03-12T16:13:33.375Z,58.95
2024-03-12T16:16:01.034Z,58.99
2024-03-12T16:18:28.314Z,59.32
2024-03-12T16:20:56.725Z,59.51
2024-03-12T16:23:24.155Z,59.54
2024-03-12T16:25:51.349Z,59.66
2024-03-12T16:28:19.300Z,59.98
2024-03-12T16:30:46.950Z,60.41
2024-03-12T16:33:14.556Z,60.75
2024-03-12T16:35:41.820Z,61.18
2024-03-12T16:38:09.076Z,61.98
2024-03-12T16:40:37.030Z,62.19
2024-03-12T16:43:05.880Z,62.53
2024-03-12T16:45:33.155Z,63.08
2024-03-12T16:48:02.688Z,63.49
2024-03-12T16:50:30.056Z,63.58
2024-03-12T16:52:57.345Z,63.68
2024-03-12T16:55:25.002Z,64.09
2024-03-12T16:57:52.656Z,64.62
2024-03-12T17:00:20.313Z,64.90
2024-03-12T17:02:48.132Z,65.19
2024-03-12T17:05:26.147Z,64.59
2024-03-12T17:07:58.275Z,64.90
2024-03-12T17:10:27.147Z,64.75
2024-03-12T17:12:55.405Z,64.86
2024-03-12T17:15:24.849Z,64.71
2024-03-12T17:17:52.877Z,64.78
2024-03-12T17:20:20.291Z,64.89
2024-03-12T17:22:48.612Z,64.55
2024-03-12T17:25:18.589Z,64.90
2024-03-12T17:27:48.801Z,64.59
2024-03-12T17:30:16.556Z,64.54
2024-03-12T17:32:47.355Z,64.54
2024-03-12T17:35:16.272Z,64.38
2024-03-12T17:37:45.087Z,64.09
2024-03-12T17:40:16.124Z,63.29
2024-03-12T17:42:45.554Z,63.37
2024-03-12T17:45:14.063Z,62.76
2024-03-12T17:47:48.743Z,62.95
2024-03-12T17:50:24.232Z,63.10
2024-03-12T17:52:59.116Z,63.18
2024-03-12T17:55:29.599Z,63.33
2024-03-12T17:57:59.729Z,63.44
2024-03-12T18:00:28.434Z,63.35
2024-03-12T18:02:58.028Z,63.40
2024-03-12T18:05:25.989Z,63.63
2024-03-12T18:07:53.650Z,62.90
2024-03-12T18:10:24.146Z,62.54
2024-03-12T18:12:51.848Z,62.75
2024-03-12T18:15:21.584Z,63.65
2024-03-12T18:17:49.173Z,63.99
2024-03-12T18:20:31.401Z,64.78
2024-03-12T18:22:59.764Z,65.77
2024-03-12T18:25:27.139Z,66.20
2024-03-12T18:27:58.151Z,66.75
2024-03-12T18:30:26.807Z,67.33
2024-03-12T18:32:55.777Z,67.47
2024-03-12T18:35:23.456Z,67.48
2024-03-12T18:37:52.295Z,68.10
2024-03-12T18:40:20.997Z,69.38
2024-03-12T18:42:54.796Z,70.05
2024-03-12T18:45:25.599Z,71.65
2024-03-12T18:47:56.800Z,72.39
2024-03-12T18:50:29.809Z,73.18
2024-03-12T18:53:02.621Z,73.89
2024-03-12T18:55:32.683Z,74.19
2024-03-12T18:58:03.509Z,75.31
2024-03-12T19:00:37.342Z,76.10
2024-03-12T19:03:16.701Z,76.78
2024-03-12T19:05:50.438Z,76.57
2024-03-12T19:08:21.976Z,77.11
2024-03-12T19:10:52.946Z,77.10
2024-03-12T19:13:25.324Z,77.55
2024-03-12T19:15:55.050Z,77.91
2024-03-12T19:18:28.097Z,77.83
2024-03-12T19:20:58.006Z,77.84
2024-03-12T19:23:27.806Z,77.24
2024-03-12T19:25:59.795Z,77.10
2024-03-12T19:28:29.914Z,76.80
2024-03-12T19:33:48.396Z,76.55
2024-03-12T19:36:29.678Z,76.57
2024-03-12T19:38:58.452Z,76.45
2024-03-12T19:41:26.191Z,75.82
2024-03-12T19:43:54.735Z,76.01
2024-03-12T19:46:22.450Z,76.10
2024-03-12T19:48:49.942Z,76.02
2024-03-12T19:51:18.765Z,76.19
2024-03-12T19:53:46.491Z,75.87
2024-03-12T19:56:14.123Z,75.03
2024-03-12T19:58:41.442Z,72.35
2024-03-12T20:01:11.820Z,71.61
2024-03-12T20:03:39.354Z,71.58
2024-03-12T20:06:06.863Z,70.21
2024-03-12T20:08:34.354Z,67.78
2024-03-12T20:11:01.775Z,67.77
2024-03-12T20:13:44.648Z,71.15
2024-03-12T20:16:15.879Z,71.11
2024-03-12T20:18:44.642Z,69.23
2024-03-12T20:21:12.488Z,68.29
2024-03-12T20:23:40.837Z,67.46
2024-03-12T20:26:08.183Z,67.40
2024-03-12T20:28:35.903Z,68.01
2024-03-12T20:31:04.161Z,68.61
2024-03-12T20:33:32.584Z,69.25
2024-03-12T20:36:02.688Z,70.11
2024-03-12T20:38:30.257Z,70.24
2024-03-12T20:40:57.613Z,71.27
2024-03-12T20:43:25.066Z,72.39
2024-03-12T20:45:52.545Z,73.34
2024-03-12T20:48:19.956Z,73.81
2024-03-12T20:50:47.450Z,74.76
2024-03-12T20:53:15.577Z,75.57
2024-03-12T20:55:43.240Z,75.98
2024-03-12T20:58:10.741Z,76.43
2024-03-12T21:00:39.404Z,77.22
2024-03-12T21:03:10.823Z,77.58
2024-03-12T21:05:39.295Z,77.86
2024-03-12T21:08:08.508Z,78.09
2024-03-12T21:10:36.051Z,78.00
2024-03-12T21:13:03.466Z,78.13
2024-03-12T21:15:31.029Z,78.11
2024-03-12T21:17:58.500Z,78.25
2024-03-12T21:20:29.341Z,79.34
2024-03-12T21:22:56.826Z,80.33
2024-03-12T21:25:24.219Z,81.20
2024-03-12T21:27:54.716Z,81.55
2024-03-12T21:30:25.266Z,82.55
2024-03-12T21:32:54.746Z,83.22
2024-03-12T21:35:25.185Z,84.21
2024-03-12T21:37:55.837Z,84.70
2024-03-12T21:40:24.241Z,85.48
2024-03-12T21:42:51.874Z,86.10
2024-03-12T21:45:20.595Z,86.29
2024-03-12T21:47:49.158Z,86.82
2024-03-12T21:50:17.664Z,86.90
2024-03-12T21:52:46.590Z,87.15
2024-03-12T21:55:14.742Z,87.24
2024-03-12T21:57:44.940Z,87.73
2024-03-12T22:00:20.604Z,88.05
2024-03-12T22:02:49.840Z,87.99
2024-03-12T22:05:17.963Z,88.40
2024-03-12T22:07:45.874Z,88.95
2024-03-12T22:10:13.874Z,89.32
2024-03-12T22:12:42.276Z,89.36
2024-03-12T22:15:13.261Z,89.51
2024-03-12T22:17:44.250Z,89.60
2024-03-12T22:20:20.135Z,89.89
2024-03-12T22:22:50.853Z,89.97
2024-03-12T22:25:19.952Z,90.32
2024-03-12T22:27:49.662Z,90.55
2024-03-12T22:30:18.095Z,90.64
2024-03-12T22:32:46.469Z,90.80
2024-03-12T22:35:14.206Z,91.08
2024-03-12T22:37:44.920Z,91.34
2024-03-12T22:40:13.959Z,91.58
2024-03-12T22:42:42.175Z,91.54
2024-03-12T22:45:12.894Z,91.59
2024-03-12T22:47:41.091Z,91.51
2024-03-12T22:50:10.181Z,91.83
2024-03-12T22:52:38.194Z,91.90
2024-03-12T22:55:09.071Z,91.98
2024-03-12T22:57:40.033Z,92.02
2024-03-12T23:00:28.907Z,92.11
2024-03-12T23:03:01.468Z,92.05
2024-03-12T23:05:29.478Z,92.28
2024-03-12T23:07:58.568Z,92.14
2024-03-12T23:10:26.328Z,92.34
2024-03-12T23:12:58.062Z,92.24
2024-03-12T23:15:27.217Z,92.13
2024-03-12T23:17:55.681Z,92.24
2024-03-12T23:20:24.095Z,92.56
2024-03-12T23:22:52.685Z,92.30
2024-03-12T23:25:23.390Z,92.22
2024-03-12T23:27:51.257Z,92.10
2024-03-12T23:30:18.646Z,91.94
2024-03-12T23:32:46.543Z,92.12
2024-03-12T23:35:13.899Z,92.04
2024-03-12T23:37:45.005Z,92.22
2024-03-12T23:40:12.455Z,92.10
2024-03-12T23:42:39.823Z,92.52
2024-03-12T23:45:10.826Z,92.22
2024-03-12T23:47:38.508Z,92.33
2024-03-12T23:50:08.983Z,92.35
2024-03-12T23:52:36.707Z,92.19
2024-03-12T23:55:05.190Z,92.13
2024-03-12T23:57:33.020Z,91.99
